Time;durP1;ratioP1;P1;durP2;ratioP2;P2;SDS_P1;SDS_P2;PMS_P1;PMS_P2;Temp;Humidity;BMP_temperature;BMP_pressure;BME280_temperature;BME280_humidity;BME280_pressure;Samples;Min_cycle;Max_cycle;Signal;HPM_P1;HPM_P2
2023/10/29 00:02:11;;;;;;;10.45;5.68;;;;;;;;;;4898305;29;20217;-62
2023/10/29 00:04:39;;;;;;;11.65;5.97;;;;;;;;;;4898103;29;20209;-62
2023/10/29 00:07:06;;;;;;;10.43;5.50;;;;;;;;;;4898057;29;20273;-64
2023/10/29 00:09:33;;;;;;;9.60;5.65;;;;;;;;;;4897905;29;20222;-62
2023/10/29 00:12:00;;;;;;;11.55;6.13;;;;;;;;;;4897722;29;20206;-62
2023/10/29 00:14:36;;;;;;;10.05;5.45;;;;;;;;;;4897722;29;20611;-62
2023/10/29 00:17:04;;;;;;;11.18;6.05;;;;;;;;;;4897012;29;20253;-60
2023/10/29 00:19:34;;;;;;;9.75;5.60;;;;;;;;;;4896171;29;20671;-62
2023/10/29 00:22:01;;;;;;;9.90;5.80;;;;;;;;;;4896222;29;20221;-61
2023/10/29 00:24:43;;;;;;;11.50;5.88;;;;;;;;;;4896452;29;20236;-61
2023/10/29 00:27:12;;;;;;;10.68;5.43;;;;;;;;;;4895987;29;20217;-62
2023/10/29 00:29:41;;;;;;;8.43;5.43;;;;;;;;;;4895908;29;20206;-61
2023/10/29 00:32:08;;;;;;;13.88;5.90;;;;;;;;;;4896244;29;20213;-60
2023/10/29 00:34:36;;;;;;;9.85;5.90;;;;;;;;;;4895994;29;20213;-61
2023/10/29 00:37:03;;;;;;;8.45;5.13;;;;;;;;;;4894804;29;20237;-62
2023/10/29 00:39:30;;;;;;;8.57;5.05;;;;;;;;;;4897521;29;20213;-61
2023/10/29 00:41:58;;;;;;;8.60;5.00;;;;;;;;;;4897370;29;20213;-62
2023/10/29 00:44:25;;;;;;;10.52;5.50;;;;;;;;;;4897415;29;20585;-61
2023/10/29 00:46:54;;;;;;;9.38;5.50;;;;;;;;;;4897534;29;20213;-62
2023/10/29 00:49:21;;;;;;;9.63;5.38;;;;;;;;;;4897610;29;20210;-62
2023/10/29 00:51:49;;;;;;;10.95;5.38;;;;;;;;;;4897475;29;20205;-59
2023/10/29 00:54:16;;;;;;;9.25;5.00;;;;;;;;;;4896040;29;20328;-60
2023/10/29 00:56:44;;;;;;;8.48;5.25;;;;;;;;;;4896176;29;20233;-59
2023/10/29 00:59:12;;;;;;;9.15;5.15;;;;;;;;;;4897156;29;20209;-60
2023/10/29 01:01:39;;;;;;;11.25;5.38;;;;;;;;;;4878135;29;20238;-63
2023/10/29 01:04:06;;;;;;;9.50;5.82;;;;;;;;;;4905882;29;20224;-63
2023/10/29 01:06:40;;;;;;;12.13;5.55;;;;;;;;;;4892320;29;20260;-61
2023/10/29 01:09:08;;;;;;;11.75;5.85;;;;;;;;;;4877653;29;20713;-60
2023/10/29 01:11:36;;;;;;;10.07;5.40;;;;;;;;;;4905421;29;20229;-60
2023/10/29 01:14:03;;;;;;;11.27;5.70;;;;;;;;;;4889586;29;20220;-61
2023/10/29 01:16:30;;;;;;;15.43;6.18;;;;;;;;;;4901734;29;20249;-60
2023/10/29 01:18:58;;;;;;;14.05;6.72;;;;;;;;;;4895229;29;20237;-61
2023/10/29 01:21:27;;;;;;;7.88;5.18;;;;;;;;;;4896350;29;20241;-59
2023/10/29 01:23:54;;;;;;;10.90;5.85;;;;;;;;;;4896218;29;20225;-61
2023/10/29 01:26:21;;;;;;;12.45;5.80;;;;;;;;;;4896095;29;20229;-62
2023/10/29 01:28:49;;;;;;;12.02;6.10;;;;;;;;;;4894984;29;20243;-61
2023/10/29 01:31:16;;;;;;;16.67;5.93;;;;;;;;;;4895429;29;20237;-63
2023/10/29 01:33:43;;;;;;;16.60;6.55;;;;;;;;;;4896515;29;20229;-61
2023/10/29 01:36:10;;;;;;;14.63;6.32;;;;;;;;;;4895266;29;20702;-62
2023/10/29 01:38:37;;;;;;;15.40;6.32;;;;;;;;;;4896119;29;20240;-61
2023/10/29 01:41:05;;;;;;;18.42;6.40;;;;;;;;;;4894567;29;20229;-62
2023/10/29 01:43:32;;;;;;;20.75;6.43;;;;;;;;;;4894856;29;20233;-61
2023/10/29 01:45:59;;;;;;;12.50;6.03;;;;;;;;;;4894124;29;20236;-63
2023/10/29 01:48:27;;;;;;;17.17;6.68;;;;;;;;;;4894941;29;20236;-62
2023/10/29 01:50:55;;;;;;;15.57;6.53;;;;;;;;;;4895952;29;20238;-62
2023/10/29 01:53:23;;;;;;;24.77;7.35;;;;;;;;;;4895737;29;20245;-62
2023/10/29 01:55:51;;;;;;;23.75;7.03;;;;;;;;;;4895921;29;20241;-60
2023/10/29 01:58:18;;;;;;;22.15;7.45;;;;;;;;;;4895894;29;20251;-61
2023/10/29 02:00:45;;;;;;;23.73;8.00;;;;;;;;;;4894272;29;20604;-62
2023/10/29 02:03:12;;;;;;;19.63;7.82;;;;;;;;;;4895816;29;20229;-61
2023/10/29 02:05:40;;;;;;;18.33;6.82;;;;;;;;;;4895894;29;20369;-61
2023/10/29 02:08:07;;;;;;;17.58;7.50;;;;;;;;;;4894577;29;20230;-63
2023/10/29 02:10:35;;;;;;;19.30;7.43;;;;;;;;;;4894669;29;20229;-61
2023/10/29 02:13:01;;;;;;;24.92;9.32;;;;;;;;;;4895767;29;20257;-61
2023/10/29 02:15:29;;;;;;;24.58;8.98;;;;;;;;;;4889513;29;20230;-60
2023/10/29 02:17:56;;;;;;;31.02;8.77;;;;;;;;;;4876972;29;20259;-59
2023/10/29 02:20:23;;;;;;;23.30;8.73;;;;;;;;;;4877202;29;20348;-61
2023/10/29 02:22:50;;;;;;;22.42;7.88;;;;;;;;;;4876063;29;20584;-61
2023/10/29 02:25:18;;;;;;;23.27;8.50;;;;;;;;;;4876886;29;20287;-61
2023/10/29 02:27:45;;;;;;;19.70;8.93;;;;;;;;;;4875648;29;20245;-62
2023/10/29 02:30:12;;;;;;;26.90;10.10;;;;;;;;;;4876494;29;20715;-59
2023/10/29 02:32:39;;;;;;;28.02;9.18;;;;;;;;;;4875640;29;20253;-62
2023/10/29 02:35:08;;;;;;;33.78;9.75;;;;;;;;;;4876897;29;20243;-61
2023/10/29 02:37:35;;;;;;;25.50;9.05;;;;;;;;;;4876802;29;20246;-60
2023/10/29 02:40:03;;;;;;;25.30;9.73;;;;;;;;;;4875592;29;20234;-61
2023/10/29 02:42:30;;;;;;;30.13;9.38;;;;;;;;;;4876798;29;20607;-60
2023/10/29 02:44:58;;;;;;;27.23;9.73;;;;;;;;;;4876973;29;20230;-62
2023/10/29 02:47:25;;;;;;;28.27;11.00;;;;;;;;;;4895566;29;20233;-63
2023/10/29 02:49:53;;;;;;;29.15;10.88;;;;;;;;;;4898007;29;20588;-62
2023/10/29 02:52:20;;;;;;;24.83;9.90;;;;;;;;;;4898704;29;20636;-61
2023/10/29 02:54:48;;;;;;;27.38;9.77;;;;;;;;;;4898545;29;20261;-62
2023/10/29 02:57:15;;;;;;;27.40;9.60;;;;;;;;;;4897258;29;20705;-62
2023/10/29 02:59:42;;;;;;;28.25;10.07;;;;;;;;;;4898362;29;20236;-62
2023/10/29 03:02:10;;;;;;;27.90;9.82;;;;;;;;;;4897512;29;20233;-63
2023/10/29 03:04:37;;;;;;;27.05;8.60;;;;;;;;;;4898802;29;20240;-61
2023/10/29 03:07:04;;;;;;;22.77;9.00;;;;;;;;;;4898225;29;20253;-62
2023/10/29 03:09:31;;;;;;;22.58;9.77;;;;;;;;;;4897555;29;20244;-62
2023/10/29 03:11:58;;;;;;;27.30;8.43;;;;;;;;;;4898157;29;20779;-60
2023/10/29 03:14:25;;;;;;;20.95;8.85;;;;;;;;;;4898264;29;20229;-62
2023/10/29 03:16:53;;;;;;;28.92;9.35;;;;;;;;;;4898038;29;20324;-62
2023/10/29 03:19:20;;;;;;;35.38;10.80;;;;;;;;;;4897159;29;20229;-61
2023/10/29 03:21:49;;;;;;;25.75;8.82;;;;;;;;;;4897052;29;20638;-62
2023/10/29 03:24:17;;;;;;;37.83;9.25;;;;;;;;;;4898295;29;20481;-60
2023/10/29 03:26:44;;;;;;;27.67;9.13;;;;;;;;;;4898585;29;20229;-62
2023/10/29 03:29:11;;;;;;;29.27;9.65;;;;;;;;;;4896560;29;20229;-63
2023/10/29 03:31:38;;;;;;;29.52;9.50;;;;;;;;;;4898372;29;20272;-62
2023/10/29 03:34:07;;;;;;;36.65;10.93;;;;;;;;;;4897814;29;20879;-61
2023/10/29 03:36:35;;;;;;;31.35;10.00;;;;;;;;;;4897047;29;20245;-59
2023/10/29 03:39:03;;;;;;;33.70;10.68;;;;;;;;;;4896901;29;20225;-61
2023/10/29 03:41:30;;;;;;;29.15;9.98;;;;;;;;;;4897999;29;20232;-62
2023/10/29 03:43:57;;;;;;;30.20;10.30;;;;;;;;;;4897611;29;20591;-60
2023/10/29 03:46:24;;;;;;;29.75;10.43;;;;;;;;;;4896125;29;20662;-57
2023/10/29 03:48:52;;;;;;;28.73;10.77;;;;;;;;;;4896665;29;20245;-61
2023/10/29 03:51:20;;;;;;;28.13;10.23;;;;;;;;;;4897697;29;20228;-60
2023/10/29 03:53:47;;;;;;;30.58;10.50;;;;;;;;;;4897877;29;20316;-62
2023/10/29 03:56:14;;;;;;;30.35;10.63;;;;;;;;;;4897326;29;20257;-61
2023/10/29 03:58:41;;;;;;;33.58;10.32;;;;;;;;;;4896315;29;20322;-62
2023/10/29 04:01:12;;;;;;;45.10;9.73;;;;;;;;;;4897280;29;20252;-60
2023/10/29 04:03:40;;;;;;;37.22;11.15;;;;;;;;;;4896635;29;20229;-62
2023/10/29 04:06:11;;;;;;;33.05;10.45;;;;;;;;;;4897077;29;20596;-61
2023/10/29 04:08:39;;;;;;;26.55;9.73;;;;;;;;;;4897749;29;20236;-61
2023/10/29 04:11:06;;;;;;;28.95;10.68;;;;;;;;;;4896304;29;20285;-60
2023/10/29 04:13:33;;;;;;;36.70;10.18;;;;;;;;;;4895966;29;20239;-61
2023/10/29 04:16:00;;;;;;;34.25;10.00;;;;;;;;;;4896783;29;20249;-60
2023/10/29 04:18:31;;;;;;;33.97;10.20;;;;;;;;;;4897411;29;20225;-60
2023/10/29 04:21:01;;;;;;;26.70;9.88;;;;;;;;;;4896087;29;20319;-61
2023/10/29 04:23:28;;;;;;;29.23;9.65;;;;;;;;;;4897148;29;20229;-62
2023/10/29 04:25:55;;;;;;;25.17;10.90;;;;;;;;;;4897138;29;20321;-59
2023/10/29 04:28:22;;;;;;;25.50;10.23;;;;;;;;;;4897049;29;20233;-61
2023/10/29 04:30:49;;;;;;;19.38;9.75;;;;;;;;;;4897052;29;20233;-58
2023/10/29 04:33:17;;;;;;;28.00;10.52;;;;;;;;;;4897418;29;20229;-62
2023/10/29 04:35:44;;;;;;;21.98;10.23;;;;;;;;;;4896982;29;20229;-58
2023/10/29 04:38:12;;;;;;;26.10;10.65;;;;;;;;;;4896662;29;20269;-63
2023/10/29 04:40:39;;;;;;;23.15;10.20;;;;;;;;;;4896748;29;20221;-61
2023/10/29 04:43:06;;;;;;;22.35;10.18;;;;;;;;;;4896426;29;20233;-61
2023/10/29 04:45:33;;;;;;;24.30;10.68;;;;;;;;;;4895506;29;20243;-61
2023/10/29 04:48:01;;;;;;;22.10;11.10;;;;;;;;;;4896400;29;20237;-61
2023/10/29 04:50:30;;;;;;;22.67;10.10;;;;;;;;;;4896618;29;20233;-61
2023/10/29 04:52:58;;;;;;;23.23;11.30;;;;;;;;;;4896334;29;20225;-60
2023/10/29 04:55:26;;;;;;;22.92;11.40;;;;;;;;;;4896446;29;20222;-60
2023/10/29 04:57:54;;;;;;;18.60;10.35;;;;;;;;;;4896059;29;20330;-61
2023/10/29 05:00:21;;;;;;;20.55;9.30;;;;;;;;;;4896466;29;20257;-62
2023/10/29 05:02:48;;;;;;;21.73;10.38;;;;;;;;;;4896647;29;20266;-61
2023/10/29 05:05:15;;;;;;;19.52;10.25;;;;;;;;;;4896808;29;20205;-60
2023/10/29 05:07:44;;;;;;;23.00;11.38;;;;;;;;;;4896783;29;20679;-62
2023/10/29 05:10:13;;;;;;;23.15;9.77;;;;;;;;;;4896993;29;20209;-61
2023/10/29 05:12:41;;;;;;;27.27;10.15;;;;;;;;;;4896186;29;20216;-59
2023/10/29 05:15:08;;;;;;;23.35;10.00;;;;;;;;;;4896344;29;20214;-62
2023/10/29 05:17:36;;;;;;;28.95;10.02;;;;;;;;;;4895372;29;20277;-62
2023/10/29 05:20:03;;;;;;;21.98;10.48;;;;;;;;;;4896198;29;20205;-62
2023/10/29 05:22:30;;;;;;;25.60;10.20;;;;;;;;;;4896030;29;20205;-61
2023/10/29 05:24:57;;;;;;;26.23;10.48;;;;;;;;;;4896017;29;20206;-60
2023/10/29 05:27:24;;;;;;;26.80;9.50;;;;;;;;;;4896095;29;20206;-63
2023/10/29 05:29:51;;;;;;;18.80;8.88;;;;;;;;;;4895732;29;20213;-60
2023/10/29 05:32:19;;;;;;;20.25;9.95;;;;;;;;;;4896429;29;20217;-62
2023/10/29 05:34:46;;;;;;;15.98;9.13;;;;;;;;;;4896325;29;20217;-62
2023/10/29 05:37:14;;;;;;;25.95;9.45;;;;;;;;;;4896426;29;20758;-61
2023/10/29 05:39:41;;;;;;;18.27;9.80;;;;;;;;;;4896287;29;20678;-62
2023/10/29 05:42:10;;;;;;;19.77;9.13;;;;;;;;;;4896302;29;20224;-61
2023/10/29 05:44:36;;;;;;;18.98;9.73;;;;;;;;;;4896315;29;20209;-61
2023/10/29 05:47:04;;;;;;;16.83;8.85;;;;;;;;;;4896197;29;20210;-62
2023/10/29 05:49:31;;;;;;;43.15;10.30;;;;;;;;;;4895633;29;20210;-61
2023/10/29 05:51:58;;;;;;;25.20;9.50;;;;;;;;;;4894735;29;20201;-64
2023/10/29 05:54:25;;;;;;;17.25;9.45;;;;;;;;;;4893903;29;20229;-61
2023/10/29 05:56:53;;;;;;;16.77;9.57;;;;;;;;;;4894842;29;20233;-61
2023/10/29 05:59:20;;;;;;;23.23;10.50;;;;;;;;;;4895502;29;20197;-61
2023/10/29 06:01:48;;;;;;;25.63;10.30;;;;;;;;;;4892554;29;20551;-62
2023/10/29 06:04:15;;;;;;;29.23;9.23;;;;;;;;;;4894314;29;20194;-65
2023/10/29 06:06:42;;;;;;;18.75;9.85;;;;;;;;;;4893941;29;20254;-64
2023/10/29 06:09:09;;;;;;;18.80;9.93;;;;;;;;;;4894470;29;20201;-65
2023/10/29 06:11:50;;;;;;;21.55;10.25;;;;;;;;;;4888577;29;20208;-66
2023/10/29 06:14:17;;;;;;;22.83;9.68;;;;;;;;;;4894477;29;20201;-64
2023/10/29 06:16:45;;;;;;;19.27;9.80;;;;;;;;;;4894461;29;20312;-62
2023/10/29 06:19:11;;;;;;;16.63;8.15;;;;;;;;;;4895767;29;20288;-63
2023/10/29 06:21:39;;;;;;;15.32;8.15;;;;;;;;;;4895168;29;20265;-61
2023/10/29 06:24:07;;;;;;;12.52;8.15;;;;;;;;;;4899403;29;20198;-65
2023/10/29 06:26:34;;;;;;;14.20;8.43;;;;;;;;;;4899454;29;20201;-64
2023/10/29 06:29:01;;;;;;;13.80;8.60;;;;;;;;;;4899429;29;20202;-63
2023/10/29 06:31:29;;;;;;;13.95;7.82;;;;;;;;;;4899163;29;20454;-62
2023/10/29 06:33:56;;;;;;;14.95;8.52;;;;;;;;;;4899150;29;20659;-63
2023/10/29 06:36:23;;;;;;;15.20;8.73;;;;;;;;;;4898163;29;20690;-62
2023/10/29 06:38:50;;;;;;;14.80;8.50;;;;;;;;;;4898371;29;20261;-62
2023/10/29 06:41:19;;;;;;;13.13;8.40;;;;;;;;;;4899524;29;20221;-66
2023/10/29 06:43:46;;;;;;;17.95;9.02;;;;;;;;;;4898943;29;20205;-65
2023/10/29 06:46:17;;;;;;;19.92;8.68;;;;;;;;;;4898208;29;20210;-63
2023/10/29 06:48:44;;;;;;;13.65;8.15;;;;;;;;;;4898717;29;20212;-64
2023/10/29 06:51:11;;;;;;;14.40;8.73;;;;;;;;;;4899155;29;20201;-64
2023/10/29 06:53:38;;;;;;;16.92;8.35;;;;;;;;;;4899022;29;20876;-62
2023/10/29 06:56:06;;;;;;;85.70;38.60;;;;;;;;;;4899785;29;20261;-63
2023/10/29 06:58:33;;;;;;;22.48;11.57;;;;;;;;;;4898164;29;20217;-66
2023/10/29 07:01:08;;;;;;;22.90;10.43;;;;;;;;;;4898727;29;20693;-63
2023/10/29 07:03:37;;;;;;;17.35;9.73;;;;;;;;;;4896573;29;20201;-67
2023/10/29 07:06:06;;;;;;;47.17;17.77;;;;;;;;;;4897850;29;20655;-63
2023/10/29 07:08:34;;;;;;;197.00;56.67;;;;;;;;;;4889217;29;20920;-61
2023/10/29 07:11:03;;;;;;;150.88;45.55;;;;;;;;;;4887560;29;20221;-61
2023/10/29 07:13:31;;;;;;;84.63;26.88;;;;;;;;;;4899712;29;20221;-63
2023/10/29 07:16:02;;;;;;;631.90;144.77;;;;;;;;;;4887187;29;20289;-61
2023/10/29 07:18:30;;;;;;;171.15;41.95;;;;;;;;;;4908422;29;20248;-62
2023/10/29 07:20:57;;;;;;;459.75;119.35;;;;;;;;;;4900678;29;20233;-62
2023/10/29 07:23:25;;;;;;;206.15;58.00;;;;;;;;;;4897155;29;20661;-64
2023/10/29 07:25:52;;;;;;;118.22;36.28;;;;;;;;;;4897965;29;20598;-59
2023/10/29 07:28:19;;;;;;;52.83;19.38;;;;;;;;;;4898075;29;20221;-60
2023/10/29 07:30:47;;;;;;;128.40;38.13;;;;;;;;;;4897232;29;20583;-60
2023/10/29 07:33:14;;;;;;;324.38;115.53;;;;;;;;;;4896691;29;20233;-62
2023/10/29 07:35:41;;;;;;;174.85;45.25;;;;;;;;;;4878156;29;20230;-61
2023/10/29 07:38:09;;;;;;;103.97;31.23;;;;;;;;;;4888899;29;20268;-60
2023/10/29 07:40:36;;;;;;;116.13;34.90;;;;;;;;;;4897022;29;20240;-60
2023/10/29 07:43:03;;;;;;;109.78;31.13;;;;;;;;;;4898010;29;20239;-61
2023/10/29 07:45:31;;;;;;;54.40;16.85;;;;;;;;;;4897003;29;20613;-63
2023/10/29 07:47:58;;;;;;;62.13;21.80;;;;;;;;;;4897852;29;20598;-65
2023/10/29 07:50:26;;;;;;;322.85;165.77;;;;;;;;;;4895989;29;20703;-64
2023/10/29 07:52:53;;;;;;;337.00;82.75;;;;;;;;;;4897523;29;20631;-59
2023/10/29 07:55:21;;;;;;;241.85;55.72;;;;;;;;;;4897067;29;20605;-62
2023/10/29 07:57:48;;;;;;;90.93;27.35;;;;;;;;;;4897673;29;20237;-62
2023/10/29 08:00:16;;;;;;;47.40;17.90;;;;;;;;;;4897907;29;20233;-62
2023/10/29 08:02:45;;;;;;;36.30;14.50;;;;;;;;;;4897094;29;20217;-63
2023/10/29 08:05:12;;;;;;;66.22;20.80;;;;;;;;;;4897076;29;20310;-61
2023/10/29 08:07:40;;;;;;;169.93;77.68;;;;;;;;;;4897799;29;20316;-64
2023/10/29 08:10:09;;;;;;;134.30;36.10;;;;;;;;;;4896261;29;20233;-64
2023/10/29 08:12:36;;;;;;;48.70;15.68;;;;;;;;;;4897618;29;20229;-60
2023/10/29 08:15:04;;;;;;;64.80;20.70;;;;;;;;;;4897275;29;20236;-61
2023/10/29 08:17:31;;;;;;;73.85;21.83;;;;;;;;;;4897214;29;20577;-62
2023/10/29 08:19:58;;;;;;;45.25;15.93;;;;;;;;;;4897330;29;20236;-62
2023/10/29 08:22:26;;;;;;;27.75;11.55;;;;;;;;;;4897125;29;20649;-59
2023/10/29 08:24:54;;;;;;;103.30;47.38;;;;;;;;;;4896304;29;20554;-65
2023/10/29 08:27:21;;;;;;;106.30;31.50;;;;;;;;;;4897153;29;20750;-62
2023/10/29 08:29:49;;;;;;;47.42;15.05;;;;;;;;;;4896891;29;20225;-64
2023/10/29 08:32:17;;;;;;;29.05;12.57;;;;;;;;;;4896997;29;20225;-64
2023/10/29 08:34:45;;;;;;;24.20;11.15;;;;;;;;;;4897334;29;20237;-65
2023/10/29 08:37:12;;;;;;;19.10;9.27;;;;;;;;;;4896304;29;20229;-62
2023/10/29 08:39:40;;;;;;;22.85;10.40;;;;;;;;;;4896519;29;20249;-64
2023/10/29 08:42:07;;;;;;;22.92;10.27;;;;;;;;;;4896330;29;20237;-64
2023/10/29 08:44:35;;;;;;;93.45;31.38;;;;;;;;;;4896383;29;20294;-63
2023/10/29 08:47:03;;;;;;;21.95;9.88;;;;;;;;;;4895730;29;20233;-63
2023/10/29 08:49:30;;;;;;;16.67;8.27;;;;;;;;;;4896254;29;20229;-64
2023/10/29 08:51:57;;;;;;;24.90;9.65;;;;;;;;;;4894850;29;20226;-60
2023/10/29 08:54:25;;;;;;;31.15;12.80;;;;;;;;;;4891176;29;20245;-60
2023/10/29 08:56:52;;;;;;;25.77;11.70;;;;;;;;;;4893597;29;20240;-61
2023/10/29 08:59:19;;;;;;;13.18;7.70;;;;;;;;;;4895379;29;20233;-61
2023/10/29 09:01:47;;;;;;;16.92;9.63;;;;;;;;;;4894889;29;20205;-62
2023/10/29 09:04:14;;;;;;;24.73;10.65;;;;;;;;;;4891431;29;20668;-60
2023/10/29 09:06:43;;;;;;;26.67;11.73;;;;;;;;;;4895059;29;20635;-61
2023/10/29 09:09:12;;;;;;;29.55;11.85;;;;;;;;;;4884859;29;20226;-61
2023/10/29 09:11:39;;;;;;;13.90;7.97;;;;;;;;;;4889001;29;20233;-61
2023/10/29 09:14:09;;;;;;;16.52;8.88;;;;;;;;;;4892837;29;20706;-61
2023/10/29 09:16:36;;;;;;;13.15;7.50;;;;;;;;;;4894374;29;20281;-60
2023/10/29 09:19:03;;;;;;;13.90;9.93;;;;;;;;;;4891171;29;20234;-60
2023/10/29 09:21:30;;;;;;;23.88;10.15;;;;;;;;;;4887598;29;20710;-60
2023/10/29 09:23:57;;;;;;;15.25;7.15;;;;;;;;;;4895311;29;20237;-61
2023/10/29 09:26:25;;;;;;;11.80;6.78;;;;;;;;;;4895605;29;20237;-60
2023/10/29 09:28:52;;;;;;;15.63;5.70;;;;;;;;;;4887454;29;20233;-62
2023/10/29 09:31:19;;;;;;;10.75;6.03;;;;;;;;;;4894996;29;20221;-62
2023/10/29 09:33:47;;;;;;;14.63;6.88;;;;;;;;;;4894835;29;20221;-60
2023/10/29 09:36:14;;;;;;;10.88;5.22;;;;;;;;;;4894980;29;20221;-61
2023/10/29 09:38:42;;;;;;;11.15;6.13;;;;;;;;;;4892740;29;20249;-60
2023/10/29 09:41:09;;;;;;;17.75;7.45;;;;;;;;;;4894203;29;20241;-63
2023/10/29 09:43:41;;;;;;;11.32;5.20;;;;;;;;;;4894679;29;20611;-62
2023/10/29 09:46:10;;;;;;;12.73;6.50;;;;;;;;;;4895445;29;20225;-62
2023/10/29 09:48:38;;;;;;;9.15;4.22;;;;;;;;;;4894673;29;20721;-60
2023/10/29 09:51:06;;;;;;;6.63;3.88;;;;;;;;;;4895993;29;20600;-62
2023/10/29 09:53:35;;;;;;;8.38;4.45;;;;;;;;;;4892225;29;20237;-62
2023/10/29 09:56:10;;;;;;;8.60;3.80;;;;;;;;;;4895626;29;20474;-63
2023/10/29 09:58:38;;;;;;;8.48;4.32;;;;;;;;;;4895796;29;20243;-64
2023/10/29 10:01:05;;;;;;;7.75;4.22;;;;;;;;;;4899429;29;20312;-63
2023/10/29 10:03:33;;;;;;;7.47;4.53;;;;;;;;;;4898455;29;20273;-62
2023/10/29 10:06:00;;;;;;;8.10;3.90;;;;;;;;;;4900115;29;20233;-61
2023/10/29 10:08:29;;;;;;;7.40;3.80;;;;;;;;;;4898738;29;20236;-64
2023/10/29 10:10:58;;;;;;;8.48;3.10;;;;;;;;;;4899771;29;20576;-61
2023/10/29 10:13:36;;;;;;;7.13;3.83;;;;;;;;;;4898622;29;20230;-62
2023/10/29 10:16:08;;;;;;;8.82;3.90;;;;;;;;;;4899712;29;20276;-59
2023/10/29 10:18:49;;;;;;;7.28;4.43;;;;;;;;;;4899395;29;20246;-60
2023/10/29 10:21:20;;;;;;;6.22;3.83;;;;;;;;;;4899456;29;20233;-59
2023/10/29 10:23:52;;;;;;;5.10;3.03;;;;;;;;;;4898759;29;20285;-58
2023/10/29 10:26:36;;;;;;;9.50;2.80;;;;;;;;;;4898437;29;20237;-59
2023/10/29 10:29:07;;;;;;;6.15;3.38;;;;;;;;;;4899504;29;20249;-58
2023/10/29 10:31:35;;;;;;;5.70;2.97;;;;;;;;;;4899138;29;20229;-58
2023/10/29 10:34:13;;;;;;;4.25;2.65;;;;;;;;;;4899267;29;20240;-59
2023/10/29 10:36:42;;;;;;;3.95;2.78;;;;;;;;;;4899353;29;20296;-59
2023/10/29 10:39:11;;;;;;;14.13;12.68;;;;;;;;;;4899644;29;20237;-58
2023/10/29 10:41:41;;;;;;;11.02;7.75;;;;;;;;;;4899517;29;20659;-59
2023/10/29 10:44:14;;;;;;;7.03;4.05;;;;;;;;;;4899597;29;20674;-59
2023/10/29 10:46:52;;;;;;;6.97;4.05;;;;;;;;;;4899511;29;20594;-57
2023/10/29 10:49:19;;;;;;;4.90;3.08;;;;;;;;;;4899259;29;20273;-59
2023/10/29 10:51:48;;;;;;;5.65;3.30;;;;;;;;;;4899235;29;20217;-58
2023/10/29 10:54:19;;;;;;;5.45;2.60;;;;;;;;;;4899336;29;20237;-59
2023/10/29 10:56:48;;;;;;;6.43;2.38;;;;;;;;;;4899658;29;20193;-56
2023/10/29 10:59:15;;;;;;;3.92;2.20;;;;;;;;;;4899547;29;20233;-58
2023/10/29 11:01:42;;;;;;;3.35;2.03;;;;;;;;;;4899286;29;20213;-59
2023/10/29 11:04:10;;;;;;;3.92;2.05;;;;;;;;;;4898930;29;20205;-58
2023/10/29 11:06:38;;;;;;;3.97;2.22;;;;;;;;;;4899332;29;20285;-59
2023/10/29 11:09:14;;;;;;;3.50;2.42;;;;;;;;;;4898121;29;20201;-59
2023/10/29 11:11:53;;;;;;;2.97;1.85;;;;;;;;;;4899018;29;20209;-58
2023/10/29 11:14:22;;;;;;;5.78;3.28;;;;;;;;;;4899034;29;20213;-59
2023/10/29 11:16:56;;;;;;;4.25;1.90;;;;;;;;;;4898861;29;20201;-59
2023/10/29 11:19:44;;;;;;;3.70;1.70;;;;;;;;;;4898809;29;20316;-59
2023/10/29 11:22:22;;;;;;;6.97;2.05;;;;;;;;;;4898824;29;20273;-57
2023/10/29 11:25:15;;;;;;;3.33;1.83;;;;;;;;;;4899078;29;20654;-58
2023/10/29 11:27:48;;;;;;;2.85;1.80;;;;;;;;;;4899025;29;20217;-59
2023/10/29 11:30:18;;;;;;;3.25;1.77;;;;;;;;;;4898819;29;20216;-57
2023/10/29 11:32:46;;;;;;;5.05;1.80;;;;;;;;;;4898670;29;20209;-57
2023/10/29 11:35:21;;;;;;;7.15;1.90;;;;;;;;;;4898625;29;20210;-59
2023/10/29 11:37:50;;;;;;;8.50;3.50;;;;;;;;;;4899036;29;20687;-59
2023/10/29 11:40:23;;;;;;;10.05;2.88;;;;;;;;;;4898905;29;20209;-57
2023/10/29 11:42:54;;;;;;;5.53;2.95;;;;;;;;;;4898588;29;20304;-59
2023/10/29 11:45:28;;;;;;;16.13;14.52;;;;;;;;;;4898484;29;20213;-59
2023/10/29 11:48:08;;;;;;;7.25;4.32;;;;;;;;;;4898345;29;20212;-57
2023/10/29 11:50:36;;;;;;;5.60;2.60;;;;;;;;;;4898783;29;20213;-58
2023/10/29 11:53:03;;;;;;;3.67;1.67;;;;;;;;;;4898206;29;20217;-58
2023/10/29 11:55:51;;;;;;;3.65;2.00;;;;;;;;;;4898302;29;20206;-58
2023/10/29 11:58:22;;;;;;;2.58;1.60;;;;;;;;;;4894071;29;20685;-57
2023/10/29 12:00:49;;;;;;;5.47;2.22;;;;;;;;;;4891408;29;20630;-58
2023/10/29 12:03:20;;;;;;;4.60;1.90;;;;;;;;;;4896677;29;20699;-60
2023/10/29 12:05:55;;;;;;;2.65;1.30;;;;;;;;;;4895119;29;20248;-58
2023/10/29 12:08:23;;;;;;;2.20;1.17;;;;;;;;;;4894380;29;20258;-58
2023/10/29 12:10:52;;;;;;;2.03;1.10;;;;;;;;;;4894253;29;20237;-58
2023/10/29 12:13:19;;;;;;;1.73;1.23;;;;;;;;;;4884708;29;20307;-59
2023/10/29 12:16:00;;;;;;;2.28;1.45;;;;;;;;;;4895075;29;20244;-57
2023/10/29 12:18:27;;;;;;;5.43;2.20;;;;;;;;;;4896011;29;20289;-59
2023/10/29 12:21:09;;;;;;;8.63;3.70;;;;;;;;;;4894855;29;20241;-59
2023/10/29 12:23:37;;;;;;;4.60;2.40;;;;;;;;;;4893198;29;20229;-59
2023/10/29 12:26:08;;;;;;;9.23;3.38;;;;;;;;;;4896329;29;20230;-58
2023/10/29 12:28:36;;;;;;;3.70;2.00;;;;;;;;;;4895006;29;20237;-58
2023/10/29 12:31:04;;;;;;;4.30;1.75;;;;;;;;;;4894967;29;20285;-58
2023/10/29 12:33:36;;;;;;;1.45;1.10;;;;;;;;;;4895988;29;20229;-58
2023/10/29 12:36:14;;;;;;;4.53;1.70;;;;;;;;;;4896307;29;20233;-57
2023/10/29 12:38:41;;;;;;;2.20;0.93;;;;;;;;;;4893841;29;20231;-58
2023/10/29 12:41:20;;;;;;;1.65;0.98;;;;;;;;;;4896133;29;20229;-59
2023/10/29 12:43:52;;;;;;;1.88;1.20;;;;;;;;;;4896196;29;20240;-58
2023/10/29 12:46:21;;;;;;;3.88;1.70;;;;;;;;;;4896514;29;20236;-57
2023/10/29 12:48:59;;;;;;;3.33;1.80;;;;;;;;;;4896140;29;20225;-58
2023/10/29 12:51:32;;;;;;;3.80;2.40;;;;;;;;;;4880692;29;20233;-58
2023/10/29 12:54:19;;;;;;;4.22;1.75;;;;;;;;;;4877910;29;20246;-57
2023/10/29 12:56:50;;;;;;;3.30;1.33;;;;;;;;;;4889004;29;20234;-59
2023/10/29 12:59:38;;;;;;;6.18;3.25;;;;;;;;;;4893217;29;20332;-58
2023/10/29 13:02:06;;;;;;;3.78;1.17;;;;;;;;;;4894933;29;20226;-59
2023/10/29 13:04:35;;;;;;;2.92;0.90;;;;;;;;;;4893095;29;20264;-58
2023/10/29 13:07:11;;;;;;;0.90;0.70;;;;;;;;;;4894906;29;20229;-59
2023/10/29 13:09:39;;;;;;;1.33;1.10;;;;;;;;;;4895774;29;20594;-57
2023/10/29 13:12:08;;;;;;;1.30;0.80;;;;;;;;;;4895722;29;20233;-59
2023/10/29 13:14:36;;;;;;;15.50;14.10;;;;;;;;;;4895704;29;20317;-57
2023/10/29 13:17:04;;;;;;;6.75;4.10;;;;;;;;;;4895298;29;20239;-58
2023/10/29 13:19:31;;;;;;;2.75;1.33;;;;;;;;;;4895354;29;20244;-58
2023/10/29 13:21:59;;;;;;;2.33;1.63;;;;;;;;;;4895943;29;20229;-58
2023/10/29 13:24:26;;;;;;;3.28;1.67;;;;;;;;;;4896103;29;20221;-57
2023/10/29 13:26:54;;;;;;;3.50;1.27;;;;;;;;;;4896319;29;20225;-58
2023/10/29 13:29:21;;;;;;;1.77;1.00;;;;;;;;;;4895946;29;20285;-57
2023/10/29 13:31:49;;;;;;;5.47;1.10;;;;;;;;;;4894920;29;20595;-59
2023/10/29 13:34:16;;;;;;;2.50;0.80;;;;;;;;;;4891663;29;20225;-57
2023/10/29 13:36:43;;;;;;;3.75;1.05;;;;;;;;;;4895589;29;20236;-58
2023/10/29 13:39:11;;;;;;;2.45;1.17;;;;;;;;;;4895780;29;20245;-57
2023/10/29 13:41:38;;;;;;;3.10;1.25;;;;;;;;;;4888704;29;20281;-58
2023/10/29 13:44:06;;;;;;;1.35;0.90;;;;;;;;;;4896217;29;20237;-58
2023/10/29 13:46:34;;;;;;;2.30;1.23;;;;;;;;;;4894953;29;20461;-59
2023/10/29 13:49:02;;;;;;;3.28;0.85;;;;;;;;;;4895521;29;20281;-57
2023/10/29 13:51:30;;;;;;;3.00;0.90;;;;;;;;;;4895746;29;20778;-57
2023/10/29 13:53:57;;;;;;;2.00;1.00;;;;;;;;;;4895905;29;20345;-57
2023/10/29 13:56:24;;;;;;;1.52;0.65;;;;;;;;;;4895119;29;20234;-57
2023/10/29 13:58:51;;;;;;;3.85;0.90;;;;;;;;;;4895645;29;20241;-58
2023/10/29 14:01:20;;;;;;;2.75;0.93;;;;;;;;;;4895483;29;20255;-58
2023/10/29 14:03:48;;;;;;;2.50;1.13;;;;;;;;;;4895855;29;20261;-57
2023/10/29 14:06:16;;;;;;;2.13;0.95;;;;;;;;;;4894259;29;20230;-59
2023/10/29 14:08:44;;;;;;;1.98;0.90;;;;;;;;;;4895687;29;20229;-57
2023/10/29 14:11:13;;;;;;;1.42;0.98;;;;;;;;;;4896070;29;20234;-57
2023/10/29 14:13:42;;;;;;;2.47;0.93;;;;;;;;;;4895999;29;20240;-57
2023/10/29 14:16:13;;;;;;;3.10;0.90;;;;;;;;;;4895313;29;20229;-58
2023/10/29 14:18:42;;;;;;;1.90;0.90;;;;;;;;;;4895788;29;20233;-56
2023/10/29 14:21:11;;;;;;;1.27;0.75;;;;;;;;;;4895963;29;20236;-56
2023/10/29 14:23:38;;;;;;;1.85;1.02;;;;;;;;;;4895495;29;20225;-56
2023/10/29 14:26:05;;;;;;;1.20;0.82;;;;;;;;;;4895883;29;20245;-58
2023/10/29 14:28:32;;;;;;;7.22;4.20;;;;;;;;;;4895350;29;20332;-57
2023/10/29 14:30:59;;;;;;;217.05;120.35;;;;;;;;;;4895465;29;20226;-57
2023/10/29 14:33:27;;;;;;;46.28;33.78;;;;;;;;;;4895918;29;20237;-55
2023/10/29 14:35:58;;;;;;;10.68;9.45;;;;;;;;;;4895870;29;20241;-55
2023/10/29 14:38:27;;;;;;;8.43;7.53;;;;;;;;;;4895640;29;20257;-56
2023/10/29 14:40:55;;;;;;;3.17;2.88;;;;;;;;;;4895557;29;20237;-56